Newbrook, Canada
Current Conditions -  °F | °C
As of 4:00 PM on Wednesday 22 Oct 2014 (Local Time) from CYED Reporting Station
Clear Clear  
Wind Chill: 61°   Ceiling: Unl
Heat Index: 61°   Visibility: 9mi
Dew Point: 30°   Wind: 15mph
Humidity: 31%   Direction: 170°S
Pressure: 29.58"   Gusts: 22mph
Location:  54.33°N, 112.95°W
Report Text: CYED 222200Z AUTO 17013G19KT 9SM CLR 16/M01 A2958 RMK SLP031
Loading
Personal Weather Stations






























Interactive Weather Map
Tropical Storm Tracking
New forecast layout! Learn more

10-Day Weather Forecast

Advertisements
Track Severe Weather on mobile